臺北飛航情報區 - 掃描席(區管/近場)

METAR RCTP 240700Z 02011KT 3500 -RA BR SCT003 BKN006 BKN016 24/16 Q1010 NOSIG RMK A2985 RA AMT 2.4MM(L)=

站台狀態:Online
最後更新:2020-09-24 15:00:02